Time;durP1;ratioP1;P1;durP2;ratioP2;P2;SDS_P1;SDS_P2;PMS_P1;PMS_P2;Temp;Humidity;BMP_temperature;BMP_pressure;BME280_temperature;BME280_humidity;BME280_pressure;Samples;Min_cycle;Max_cycle;Signal;HPM_P1;HPM_P2
2022/06/16 00:01:11;;;;;;;4.75;2.03;;;;;;;;;;10502116;28;20209;-71
2022/06/16 00:06:12;;;;;;;2.75;2.20;;;;;;;;;;10484833;28;20232;-71
2022/06/16 00:11:16;;;;;;;3.10;2.33;;;;;;;;;;10466266;28;20182;-72
2022/06/16 00:16:17;;;;;;;3.20;3.03;;;;;;;;;;10493943;28;20723;-71
2022/06/16 00:21:18;;;;;;;2.25;2.05;;;;;;;;;;10498990;28;20864;-71
2022/06/16 00:26:21;;;;;;;5.03;2.17;;;;;;;;;;10482519;28;20241;-72
2022/06/16 00:31:23;;;;;;;3.42;2.20;;;;;;;;;;10492845;28;20300;-71
2022/06/16 00:36:24;;;;;;;2.33;2.22;;;;;;;;;;10482052;28;20219;-72
2022/06/16 00:41:26;;;;;;;3.38;2.13;;;;;;;;;;10502443;28;20564;-72
2022/06/16 00:46:29;;;;;;;2.50;2.40;;;;;;;;;;10501452;28;20217;-72
2022/06/16 00:51:37;;;;;;;2.95;2.58;;;;;;;;;;10506100;28;20182;-72
2022/06/16 00:56:38;;;;;;;2.60;1.92;;;;;;;;;;10499449;28;20262;-72
2022/06/16 01:01:42;;;;;;;2.30;2.20;;;;;;;;;;10499774;28;20259;-72
2022/06/16 01:06:43;;;;;;;2.70;2.50;;;;;;;;;;10487642;28;20631;-71
2022/06/16 01:17:24;;;;;;;2.45;2.35;;;;;;;;;;10486539;28;20206;-72
2022/06/16 01:22:44;;;;;;;4.60;2.33;;;;;;;;;;10479461;28;20218;-73
2022/06/16 01:28:00;;;;;;;2.35;2.25;;;;;;;;;;10495542;28;20229;-72
2022/06/16 01:33:06;;;;;;;2.47;2.33;;;;;;;;;;10480641;28;20626;-72
2022/06/16 01:38:19;;;;;;;2.60;2.40;;;;;;;;;;10481910;28;20197;-72
2022/06/16 01:43:32;;;;;;;2.70;2.38;;;;;;;;;;10489917;28;20267;-71
2022/06/16 01:48:35;;;;;;;2.33;2.22;;;;;;;;;;10486716;28;20648;-72
2022/06/16 01:53:42;;;;;;;2.25;2.17;;;;;;;;;;10472665;28;20221;-71
2022/06/16 01:58:47;;;;;;;3.38;2.30;;;;;;;;;;10481499;28;20263;-72
2022/06/16 02:03:51;;;;;;;2.38;2.28;;;;;;;;;;10493557;28;20218;-71
2022/06/16 02:08:55;;;;;;;4.93;2.47;;;;;;;;;;10480280;28;20201;-71
2022/06/16 02:14:26;;;;;;;8.63;2.80;;;;;;;;;;10497860;28;20201;-72
2022/06/16 02:19:32;;;;;;;2.28;2.17;;;;;;;;;;10473245;28;20224;-71
2022/06/16 02:24:34;;;;;;;2.00;1.95;;;;;;;;;;10491664;28;20224;-71
2022/06/16 02:29:37;;;;;;;1.98;1.88;;;;;;;;;;10477137;28;20181;-71
2022/06/16 02:34:55;;;;;;;2.40;2.15;;;;;;;;;;10476225;28;20209;-71
2022/06/16 02:40:15;;;;;;;2.60;2.40;;;;;;;;;;10487385;28;20178;-71
2022/06/16 02:45:25;;;;;;;2.10;2.00;;;;;;;;;;10498094;28;20637;-72
2022/06/16 02:50:46;;;;;;;4.78;2.20;;;;;;;;;;10498246;28;20181;-71
2022/06/16 02:55:50;;;;;;;2.78;2.30;;;;;;;;;;10495661;28;20686;-71
2022/06/16 03:00:54;;;;;;;4.25;2.38;;;;;;;;;;10500981;28;20275;-71
2022/06/16 03:05:56;;;;;;;2.97;2.60;;;;;;;;;;10491053;28;20213;-71
2022/06/16 03:10:58;;;;;;;2.50;2.28;;;;;;;;;;10492034;28;20182;-71
2022/06/16 03:16:01;;;;;;;3.67;2.55;;;;;;;;;;10488645;28;20241;-71
2022/06/16 03:21:05;;;;;;;2.40;2.30;;;;;;;;;;10469622;28;20185;-71
2022/06/16 03:26:06;;;;;;;3.97;2.60;;;;;;;;;;10479467;28;21076;-71
2022/06/16 03:31:09;;;;;;;2.38;2.28;;;;;;;;;;10466433;28;20263;-71
2022/06/16 03:36:13;;;;;;;2.80;2.60;;;;;;;;;;10471655;28;20217;-71
2022/06/16 03:41:15;;;;;;;2.70;2.58;;;;;;;;;;10487834;28;20186;-71
2022/06/16 03:46:17;;;;;;;2.92;2.83;;;;;;;;;;10498709;28;21136;-72
2022/06/16 03:51:27;;;;;;;6.38;3.22;;;;;;;;;;10505759;28;20193;-71
2022/06/16 03:56:29;;;;;;;2.80;2.58;;;;;;;;;;10486941;28;20205;-71
2022/06/16 04:01:30;;;;;;;3.15;3.05;;;;;;;;;;10485020;28;20221;-71
2022/06/16 04:06:33;;;;;;;3.72;2.85;;;;;;;;;;10492836;28;20233;-71
2022/06/16 04:11:34;;;;;;;6.15;2.58;;;;;;;;;;10479219;28;20190;-71
2022/06/16 04:16:40;;;;;;;3.20;3.00;;;;;;;;;;10483251;28;20551;-72
2022/06/16 04:21:43;;;;;;;3.15;3.00;;;;;;;;;;10482148;28;20196;-71
2022/06/16 04:26:59;;;;;;;3.72;2.88;;;;;;;;;;10482153;28;20248;-73
2022/06/16 04:32:01;;;;;;;3.92;3.40;;;;;;;;;;10474351;28;20965;-73
2022/06/16 04:37:22;;;;;;;4.22;2.80;;;;;;;;;;10480302;28;20206;-72
2022/06/16 04:42:29;;;;;;;3.50;3.03;;;;;;;;;;10478560;28;20210;-72
2022/06/16 04:47:30;;;;;;;2.85;2.70;;;;;;;;;;10499100;28;20206;-73
2022/06/16 04:52:32;;;;;;;3.05;2.95;;;;;;;;;;10459524;28;20594;-75
2022/06/16 04:57:34;;;;;;;2.90;2.70;;;;;;;;;;10479579;28;20209;-73
2022/06/16 05:02:50;;;;;;;3.35;2.75;;;;;;;;;;10461389;28;20213;-73
2022/06/16 05:08:16;;;;;;;4.07;3.28;;;;;;;;;;10495744;28;20300;-73
2022/06/16 05:13:28;;;;;;;3.10;3.00;;;;;;;;;;10494036;28;20752;-72
2022/06/16 05:18:48;;;;;;;3.38;2.42;;;;;;;;;;10502548;28;20213;-74
2022/06/16 05:23:49;;;;;;;3.13;2.22;;;;;;;;;;10503153;28;20309;-72
2022/06/16 05:29:09;;;;;;;3.60;2.50;;;;;;;;;;10498621;28;20363;-72
2022/06/16 05:34:28;;;;;;;2.33;2.20;;;;;;;;;;10500354;28;20675;-73
2022/06/16 05:39:43;;;;;;;2.30;2.20;;;;;;;;;;10482406;28;20243;-72
2022/06/16 05:44:55;;;;;;;2.45;2.28;;;;;;;;;;10486449;28;20210;-71
2022/06/16 05:50:19;;;;;;;2.75;2.53;;;;;;;;;;10484302;28;20201;-73
2022/06/16 05:55:20;;;;;;;2.30;2.20;;;;;;;;;;10487832;28;20205;-73
2022/06/16 06:00:21;;;;;;;2.75;2.47;;;;;;;;;;10480001;28;20224;-72
2022/06/16 06:05:29;;;;;;;2.40;2.20;;;;;;;;;;10475748;28;21263;-72
2022/06/16 06:21:10;;;;;;;3.85;2.28;;;;;;;;;;10463742;28;20688;-74
2022/06/16 06:26:12;;;;;;;3.17;2.83;;;;;;;;;;10475285;28;20285;-74
2022/06/16 06:31:14;;;;;;;3.45;3.13;;;;;;;;;;10489630;28;20254;-74
2022/06/16 06:36:15;;;;;;;3.70;2.40;;;;;;;;;;10484638;28;20263;-74
2022/06/16 06:41:17;;;;;;;3.90;2.75;;;;;;;;;;10492502;28;20186;-75
2022/06/16 06:46:18;;;;;;;4.78;3.00;;;;;;;;;;10489384;28;20297;-74
2022/06/16 06:51:19;;;;;;;3.10;2.83;;;;;;;;;;10490111;28;20231;-73
2022/06/16 06:56:20;;;;;;;6.35;3.22;;;;;;;;;;10482057;28;20294;-74
2022/06/16 07:01:21;;;;;;;7.68;3.10;;;;;;;;;;10484269;28;20216;-72
2022/06/16 07:06:22;;;;;;;2.80;2.60;;;;;;;;;;10484043;28;20682;-73
2022/06/16 07:11:23;;;;;;;3.75;2.30;;;;;;;;;;10491192;28;20202;-73
2022/06/16 07:16:24;;;;;;;7.25;2.60;;;;;;;;;;10483347;28;20217;-72
2022/06/16 07:21:25;;;;;;;4.40;2.20;;;;;;;;;;10481050;28;20178;-74
2022/06/16 07:26:26;;;;;;;4.30;2.85;;;;;;;;;;10478930;28;20229;-74
2022/06/16 07:31:28;;;;;;;3.25;2.60;;;;;;;;;;10474790;28;20213;-72
2022/06/16 07:36:29;;;;;;;2.85;2.50;;;;;;;;;;10474734;28;20255;-74
2022/06/16 07:41:36;;;;;;;2.55;2.30;;;;;;;;;;10466352;28;20197;-73
2022/06/16 07:46:38;;;;;;;2.28;2.13;;;;;;;;;;10476974;28;20324;-72
2022/06/16 07:51:42;;;;;;;3.97;2.88;;;;;;;;;;10467501;28;20197;-73
2022/06/16 07:56:43;;;;;;;7.28;2.28;;;;;;;;;;10474396;28;20624;-72
2022/06/16 08:01:44;;;;;;;7.20;2.25;;;;;;;;;;10473349;28;20595;-73
2022/06/16 08:06:46;;;;;;;5.55;1.90;;;;;;;;;;10477871;28;20847;-73
2022/06/16 08:12:07;;;;;;;8.18;2.65;;;;;;;;;;10488451;28;20607;-73
2022/06/16 08:17:14;;;;;;;5.85;1.70;;;;;;;;;;10475617;28;20684;-72
2022/06/16 08:22:16;;;;;;;8.60;2.05;;;;;;;;;;10486777;28;20197;-73
2022/06/16 08:27:18;;;;;;;7.05;2.20;;;;;;;;;;10487975;28;20216;-73
2022/06/16 08:32:20;;;;;;;2.88;1.70;;;;;;;;;;10487127;28;20218;-73
2022/06/16 08:37:21;;;;;;;7.30;1.63;;;;;;;;;;10486228;28;20209;-73
2022/06/16 08:42:41;;;;;;;1.88;1.38;;;;;;;;;;10466017;28;20193;-72
2022/06/16 08:48:01;;;;;;;5.97;1.55;;;;;;;;;;10478000;28;20930;-73
2022/06/16 08:53:06;;;;;;;5.85;1.52;;;;;;;;;;10489647;28;20194;-73
2022/06/16 08:58:26;;;;;;;3.58;2.00;;;;;;;;;;10486532;28;20214;-73
2022/06/16 09:03:29;;;;;;;2.95;2.00;;;;;;;;;;10485713;28;20768;-73
2022/06/16 09:08:51;;;;;;;2.08;1.98;;;;;;;;;;10421268;28;20265;-72
2022/06/16 09:14:03;;;;;;;2.15;2.00;;;;;;;;;;10445725;28;20201;-72
2022/06/16 09:19:15;;;;;;;2.00;1.77;;;;;;;;;;10438324;28;20213;-74
2022/06/16 09:24:40;;;;;;;2.35;1.70;;;;;;;;;;10437164;28;20264;-73
2022/06/16 09:29:46;;;;;;;2.17;1.50;;;;;;;;;;10446389;28;20183;-74
2022/06/16 09:35:07;;;;;;;1.30;1.30;;;;;;;;;;10436556;28;20230;-74
2022/06/16 09:40:23;;;;;;;5.32;1.65;;;;;;;;;;10430849;28;20195;-74
2022/06/16 09:45:27;;;;;;;4.57;1.45;;;;;;;;;;10435731;28;20230;-75
2022/06/16 09:50:36;;;;;;;3.70;1.30;;;;;;;;;;10435531;28;20183;-74
2022/06/16 09:55:45;;;;;;;2.00;1.83;;;;;;;;;;10422092;28;20210;-74
2022/06/16 10:00:46;;;;;;;3.95;1.60;;;;;;;;;;10427688;28;20211;-74
2022/06/16 10:06:06;;;;;;;1.67;1.40;;;;;;;;;;10449908;28;20301;-75
2022/06/16 10:11:12;;;;;;;2.35;1.30;;;;;;;;;;10476045;28;20262;-74
2022/06/16 10:16:18;;;;;;;2.20;1.17;;;;;;;;;;10473040;28;20775;-75
2022/06/16 10:21:21;;;;;;;1.67;1.17;;;;;;;;;;10448221;28;20243;-75
2022/06/16 10:26:22;;;;;;;1.95;1.40;;;;;;;;;;10474563;28;20443;-75
2022/06/16 10:31:45;;;;;;;1.38;1.27;;;;;;;;;;10476651;28;20213;-73
2022/06/16 10:36:54;;;;;;;1.40;1.30;;;;;;;;;;10460188;28;20273;-73
2022/06/16 10:42:13;;;;;;;3.53;1.20;;;;;;;;;;10477132;28;20743;-75
2022/06/16 10:47:20;;;;;;;2.38;1.23;;;;;;;;;;10457590;28;20805;-74
2022/06/16 10:52:27;;;;;;;5.15;1.05;;;;;;;;;;10471773;28;20182;-73
2022/06/16 10:57:33;;;;;;;3.88;1.40;;;;;;;;;;10471560;28;20205;-73
2022/06/16 11:02:35;;;;;;;1.88;1.15;;;;;;;;;;10473702;28;20585;-74
2022/06/16 11:07:38;;;;;;;0.98;0.98;;;;;;;;;;10440392;28;20219;-73
2022/06/16 11:12:41;;;;;;;5.03;1.20;;;;;;;;;;10432883;28;20241;-72
2022/06/16 11:17:46;;;;;;;1.70;1.10;;;;;;;;;;10436830;28;20210;-73
2022/06/16 11:22:49;;;;;;;3.42;1.08;;;;;;;;;;10440300;28;20817;-74
2022/06/16 11:27:55;;;;;;;1.58;1.00;;;;;;;;;;10434170;28;20297;-74
2022/06/16 11:32:56;;;;;;;1.00;0.90;;;;;;;;;;10433849;28;21044;-74
2022/06/16 11:38:02;;;;;;;3.90;1.10;;;;;;;;;;10438667;28;20210;-73
2022/06/16 11:43:13;;;;;;;1.30;0.90;;;;;;;;;;10432726;28;20218;-73
2022/06/16 11:48:23;;;;;;;1.20;0.70;;;;;;;;;;10422352;28;21029;-73
2022/06/16 11:53:34;;;;;;;1.95;0.98;;;;;;;;;;10419662;28;20192;-73
2022/06/16 11:58:58;;;;;;;1.13;1.10;;;;;;;;;;10446667;28;20210;-74
2022/06/16 12:04:18;;;;;;;1.08;0.90;;;;;;;;;;10437260;28;20224;-73
2022/06/16 12:09:33;;;;;;;8.25;1.40;;;;;;;;;;10477254;28;20741;-74
2022/06/16 12:14:39;;;;;;;1.10;0.90;;;;;;;;;;10488621;28;20673;-73
2022/06/16 12:19:40;;;;;;;1.00;1.00;;;;;;;;;;10492620;28;20189;-73
2022/06/16 12:25:02;;;;;;;2.85;1.10;;;;;;;;;;10488721;28;20248;-73
2022/06/16 12:30:08;;;;;;;1.60;0.80;;;;;;;;;;10484400;28;20991;-73
2022/06/16 12:35:24;;;;;;;0.85;0.82;;;;;;;;;;10492799;28;20229;-73
2022/06/16 12:40:25;;;;;;;4.30;1.23;;;;;;;;;;10482847;28;20193;-73
2022/06/16 12:45:36;;;;;;;1.67;1.00;;;;;;;;;;10463711;28;20221;-74
2022/06/16 12:50:42;;;;;;;4.13;1.00;;;;;;;;;;10467209;28;20189;-73
2022/06/16 12:55:49;;;;;;;1.67;0.65;;;;;;;;;;10481142;28;20917;-74
2022/06/16 13:00:53;;;;;;;2.13;1.00;;;;;;;;;;10481039;28;20291;-74
2022/06/16 13:05:56;;;;;;;1.88;1.20;;;;;;;;;;10469486;28;20313;-74
2022/06/16 13:10:59;;;;;;;2.92;0.90;;;;;;;;;;10469711;28;20194;-73
2022/06/16 13:16:02;;;;;;;3.30;1.27;;;;;;;;;;10482600;28;20202;-73
2022/06/16 13:21:05;;;;;;;2.00;1.00;;;;;;;;;;10481634;28;20197;-73
2022/06/16 13:26:21;;;;;;;1.77;0.90;;;;;;;;;;10475056;28;20329;-73
2022/06/16 13:31:29;;;;;;;2.10;0.70;;;;;;;;;;10478286;28;20835;-73
2022/06/16 13:36:33;;;;;;;2.85;0.95;;;;;;;;;;10481237;28;20238;-73
2022/06/16 13:41:42;;;;;;;1.40;0.85;;;;;;;;;;10465399;28;20194;-73
2022/06/16 13:47:09;;;;;;;0.65;0.65;;;;;;;;;;10464016;28;20217;-74
2022/06/16 13:52:13;;;;;;;2.30;0.80;;;;;;;;;;10448892;28;20202;-74
2022/06/16 13:57:18;;;;;;;0.95;0.88;;;;;;;;;;10459712;28;20221;-73
2022/06/16 14:02:21;;;;;;;2.25;0.70;;;;;;;;;;10477310;28;20313;-73
2022/06/16 14:07:22;;;;;;;1.00;0.70;;;;;;;;;;10464029;28;20228;-72
2022/06/16 14:12:43;;;;;;;2.13;0.90;;;;;;;;;;10483147;28;20204;-73
2022/06/16 14:17:47;;;;;;;1.70;0.82;;;;;;;;;;10483346;28;20627;-73
2022/06/16 14:22:50;;;;;;;1.65;0.77;;;;;;;;;;10485369;28;20217;-73
2022/06/16 14:28:03;;;;;;;0.80;0.80;;;;;;;;;;10488194;28;20720;-73
2022/06/16 14:33:08;;;;;;;1.90;0.70;;;;;;;;;;10479713;28;20224;-73
2022/06/16 14:38:13;;;;;;;0.70;0.70;;;;;;;;;;10479093;28;20235;-74
2022/06/16 14:43:22;;;;;;;0.70;0.70;;;;;;;;;;10477394;28;20212;-74
2022/06/16 14:48:26;;;;;;;0.70;0.50;;;;;;;;;;10472241;28;21126;-73
2022/06/16 14:53:32;;;;;;;2.67;0.70;;;;;;;;;;10463022;28;20273;-76
2022/06/16 14:58:53;;;;;;;0.68;0.68;;;;;;;;;;10479765;28;20214;-76
2022/06/16 15:03:55;;;;;;;0.68;0.68;;;;;;;;;;10480092;28;20852;-75
2022/06/16 15:08:59;;;;;;;0.60;0.60;;;;;;;;;;10488041;28;20206;-75
2022/06/16 15:14:04;;;;;;;1.60;0.65;;;;;;;;;;10491220;28;20646;-75
2022/06/16 15:19:05;;;;;;;1.05;0.63;;;;;;;;;;10493259;28;20240;-76
2022/06/16 15:24:06;;;;;;;1.83;0.50;;;;;;;;;;10485602;28;20228;-76
2022/06/16 15:29:15;;;;;;;0.60;0.60;;;;;;;;;;10489832;28;21463;-75
2022/06/16 15:39:41;;;;;;;0.60;0.60;;;;;;;;;;10493521;28;20732;-75
2022/06/16 15:44:44;;;;;;;1.27;0.50;;;;;;;;;;10493844;28;20213;-76
2022/06/16 15:49:48;;;;;;;1.20;0.50;;;;;;;;;;10495855;28;20277;-76
2022/06/16 15:54:51;;;;;;;2.33;0.60;;;;;;;;;;10492557;28;20210;-75
2022/06/16 15:59:56;;;;;;;1.40;0.60;;;;;;;;;;10492383;28;20254;-76
2022/06/16 16:05:02;;;;;;;1.42;0.60;;;;;;;;;;10491494;28;20274;-74
2022/06/16 16:10:05;;;;;;;0.50;0.50;;;;;;;;;;10474969;28;20198;-75
2022/06/16 16:15:06;;;;;;;0.47;0.47;;;;;;;;;;10492275;28;20293;-75
2022/06/16 16:20:08;;;;;;;0.40;0.40;;;;;;;;;;10493608;28;20194;-75
2022/06/16 16:25:09;;;;;;;0.52;0.52;;;;;;;;;;10494054;28;20248;-76
2022/06/16 16:30:16;;;;;;;2.20;0.65;;;;;;;;;;10489884;28;20190;-75
2022/06/16 16:35:20;;;;;;;0.63;0.45;;;;;;;;;;10489652;28;20295;-75
2022/06/16 16:43:00;;;;;;;0.65;0.40;;;;;;;;;;10487370;28;20237;-74
2022/06/16 16:45:49;;;;;;;0.40;0.40;;;;;;;;;;10488934;28;20809;-75
2022/06/16 16:50:56;;;;;;;1.40;1.30;;;;;;;;;;10489313;28;20708;-75
2022/06/16 16:56:06;;;;;;;0.95;0.80;;;;;;;;;;10489541;28;20210;-75
2022/06/16 17:01:08;;;;;;;0.98;0.70;;;;;;;;;;10487154;28;20235;-75
2022/06/16 17:06:09;;;;;;;0.47;0.40;;;;;;;;;;10474347;28;20218;-76
2022/06/16 17:16:32;;;;;;;2.60;0.75;;;;;;;;;;10491145;28;20214;-76
2022/06/16 17:21:34;;;;;;;2.33;2.22;;;;;;;;;;10491413;28;20604;-76
2022/06/16 17:26:35;;;;;;;2.03;1.98;;;;;;;;;;10472308;28;20222;-75
2022/06/16 17:31:36;;;;;;;0.20;0.20;;;;;;;;;;10475549;28;20406;-75
2022/06/16 17:36:39;;;;;;;2.53;0.30;;;;;;;;;;10493928;28;20217;-75
2022/06/16 17:41:40;;;;;;;0.30;0.30;;;;;;;;;;10491670;28;20192;-75
2022/06/16 17:46:41;;;;;;;0.38;0.30;;;;;;;;;;10488115;28;20305;-75
2022/06/16 18:02:04;;;;;;;0.32;0.32;;;;;;;;;;10488105;28;20209;-75
2022/06/16 18:07:07;;;;;;;2.25;0.20;;;;;;;;;;10488313;28;20260;-74
2022/06/16 18:12:18;;;;;;;0.68;0.20;;;;;;;;;;10491653;28;20910;-75
2022/06/16 18:17:20;;;;;;;0.57;0.20;;;;;;;;;;10494926;28;20217;-75
2022/06/16 18:22:21;;;;;;;0.98;0.20;;;;;;;;;;10491982;28;20285;-74
2022/06/16 18:27:24;;;;;;;0.55;0.30;;;;;;;;;;10490921;28;20220;-75
2022/06/16 18:32:25;;;;;;;0.98;0.35;;;;;;;;;;10500991;28;20584;-76
2022/06/16 18:37:26;;;;;;;0.40;0.40;;;;;;;;;;10502144;28;20214;-75
2022/06/16 18:42:27;;;;;;;0.93;0.38;;;;;;;;;;10496599;28;20257;-76
2022/06/16 18:47:30;;;;;;;0.38;0.30;;;;;;;;;;10478220;28;20209;-75
2022/06/16 18:52:32;;;;;;;1.85;0.38;;;;;;;;;;10489836;28;20194;-75
2022/06/16 18:57:34;;;;;;;1.73;0.25;;;;;;;;;;10493166;28;20216;-75
2022/06/16 19:02:37;;;;;;;0.80;0.40;;;;;;;;;;10476211;28;20283;-74
2022/06/16 19:07:38;;;;;;;0.30;0.20;;;;;;;;;;10490862;28;20222;-74
2022/06/16 19:12:39;;;;;;;0.98;0.35;;;;;;;;;;10492246;28;20186;-74
2022/06/16 19:17:45;;;;;;;1.20;0.32;;;;;;;;;;10486213;28;20218;-74
2022/06/16 19:22:46;;;;;;;0.30;0.30;;;;;;;;;;10492373;28;20890;-74
2022/06/16 19:27:47;;;;;;;2.47;0.50;;;;;;;;;;10477874;28;20236;-74
2022/06/16 19:32:49;;;;;;;1.30;0.40;;;;;;;;;;10489604;28;20213;-74
2022/06/16 19:37:52;;;;;;;1.23;0.40;;;;;;;;;;10490900;28;20209;-74
2022/06/16 19:42:55;;;;;;;0.60;0.30;;;;;;;;;;10494289;28;20199;-74
2022/06/16 19:53:18;;;;;;;0.80;0.40;;;;;;;;;;10496625;28;20193;-74
2022/06/16 19:58:19;;;;;;;1.30;0.40;;;;;;;;;;10496354;28;20210;-74
2022/06/16 20:03:22;;;;;;;0.52;0.30;;;;;;;;;;10491462;28;20253;-74
2022/06/16 20:08:23;;;;;;;1.23;0.40;;;;;;;;;;10487711;28;20716;-73
2022/06/16 20:13:25;;;;;;;0.60;0.40;;;;;;;;;;10489655;28;20197;-74
2022/06/16 20:18:28;;;;;;;0.70;0.50;;;;;;;;;;10499216;28;20214;-72
2022/06/16 20:23:31;;;;;;;0.30;0.30;;;;;;;;;;10502699;28;20736;-74
2022/06/16 20:28:33;;;;;;;0.52;0.40;;;;;;;;;;10498133;28;20296;-74
2022/06/16 20:33:35;;;;;;;0.82;0.50;;;;;;;;;;10499278;28;20213;-74
2022/06/16 20:38:37;;;;;;;1.55;0.50;;;;;;;;;;10491193;28;20288;-74
2022/06/16 20:43:38;;;;;;;1.58;0.40;;;;;;;;;;10488027;28;20809;-74
2022/06/16 20:48:45;;;;;;;1.05;0.65;;;;;;;;;;10496076;28;20305;-74
2022/06/16 20:53:47;;;;;;;0.30;0.30;;;;;;;;;;10491270;28;20194;-74
2022/06/16 21:04:08;;;;;;;1.65;0.40;;;;;;;;;;10494404;28;20224;-74
2022/06/16 21:09:09;;;;;;;1.15;0.50;;;;;;;;;;10503268;28;20200;-75
2022/06/16 21:14:10;;;;;;;2.05;0.60;;;;;;;;;;10476901;28;20186;-74
2022/06/16 21:19:11;;;;;;;1.75;0.50;;;;;;;;;;10494921;28;20197;-74
2022/06/16 21:24:23;;;;;;;0.68;0.60;;;;;;;;;;10502792;28;20270;-74
2022/06/16 21:29:24;;;;;;;1.10;0.47;;;;;;;;;;10500839;28;20214;-73
2022/06/16 21:34:25;;;;;;;3.30;0.50;;;;;;;;;;10477316;28;20214;-73
2022/06/16 21:39:26;;;;;;;2.83;0.65;;;;;;;;;;10498819;28;20205;-73
2022/06/16 21:44:27;;;;;;;0.45;0.45;;;;;;;;;;10491816;28;20242;-74
2022/06/16 21:49:28;;;;;;;0.82;0.65;;;;;;;;;;10493294;28;20210;-74
2022/06/16 21:54:29;;;;;;;1.13;0.52;;;;;;;;;;10483384;28;20590;-74
2022/06/16 21:59:30;;;;;;;2.20;0.60;;;;;;;;;;10484973;28;20222;-74
2022/06/16 22:04:32;;;;;;;2.97;0.80;;;;;;;;;;10487531;28;20599;-74
2022/06/16 22:09:34;;;;;;;1.55;0.50;;;;;;;;;;10469405;28;20186;-74
2022/06/16 22:19:56;;;;;;;1.10;0.50;;;;;;;;;;10479500;28;20186;-74
2022/06/16 22:24:57;;;;;;;3.03;0.60;;;;;;;;;;10480638;28;20332;-74
2022/06/16 22:29:58;;;;;;;0.60;0.45;;;;;;;;;;10480604;28;20190;-73
2022/06/16 22:34:59;;;;;;;3.63;0.80;;;;;;;;;;10489129;28;20299;-73
2022/06/16 22:45:21;;;;;;;1.63;0.60;;;;;;;;;;10490423;28;20206;-73
2022/06/16 22:50:23;;;;;;;1.65;0.52;;;;;;;;;;10483925;28;20202;-73
2022/06/16 23:00:45;;;;;;;2.83;0.90;;;;;;;;;;10487291;28;20251;-73
2022/06/16 23:05:47;;;;;;;1.75;0.80;;;;;;;;;;10490276;28;20294;-73
2022/06/16 23:10:48;;;;;;;1.77;0.80;;;;;;;;;;10486802;28;20729;-74
2022/06/16 23:15:49;;;;;;;2.72;1.00;;;;;;;;;;10482751;28;20241;-73
2022/06/16 23:20:51;;;;;;;0.90;0.90;;;;;;;;;;10486335;28;20988;-72
2022/06/16 23:25:53;;;;;;;3.92;0.90;;;;;;;;;;10486005;28;20791;-72
2022/06/16 23:30:54;;;;;;;1.73;0.85;;;;;;;;;;10473138;28;20224;-73
2022/06/16 23:35:55;;;;;;;1.02;0.93;;;;;;;;;;10481422;28;20202;-72
2022/06/16 23:40:57;;;;;;;2.10;1.00;;;;;;;;;;10480826;28;20190;-72
2022/06/16 23:45:58;;;;;;;1.17;1.17;;;;;;;;;;10499059;28;20210;-71
2022/06/16 23:51:02;;;;;;;2.65;1.15;;;;;;;;;;10493329;28;20221;-72
2022/06/16 23:56:05;;;;;;;1.85;1.05;;;;;;;;;;10482773;28;20207;-71
